createdAt,value
2023-05-18T00:02:28.077Z,61.63
2023-05-18T00:07:34.250Z,63.80
2023-05-18T00:12:36.589Z,62.49
2023-05-18T00:17:38.379Z,64.32
2023-05-18T00:22:42.752Z,65.65
2023-05-18T00:27:44.562Z,66.54
2023-05-18T00:32:46.350Z,67.33
2023-05-18T00:37:48.112Z,66.46
2023-05-18T00:42:49.770Z,66.46
2023-05-18T00:47:51.571Z,66.23
2023-05-18T00:52:53.341Z,65.82
2023-05-18T00:57:56.571Z,65.67
2023-05-18T01:02:58.477Z,65.95
2023-05-18T01:08:03.082Z,65.63
2023-05-18T01:13:10.831Z,66.87
2023-05-18T01:18:34.198Z,68.16
2023-05-18T01:23:45.962Z,69.14
2023-05-18T01:28:49.833Z,70.88
2023-05-18T01:33:51.837Z,71.36
2023-05-18T01:38:55.343Z,72.00
2023-05-18T01:44:00.147Z,71.54
2023-05-18T01:49:13.459Z,72.05
2023-05-18T01:54:17.772Z,70.72
2023-05-18T01:59:19.699Z,72.10
2023-05-18T02:04:21.393Z,70.86
2023-05-18T02:09:23.515Z,69.15
2023-05-18T02:14:26.034Z,68.62
2023-05-18T02:19:30.974Z,68.64
2023-05-18T02:24:33.471Z,68.63
2023-05-18T02:29:35.196Z,68.85
2023-05-18T02:34:38.248Z,70.56
2023-05-18T02:39:40.352Z,73.40
2023-05-18T02:44:42.222Z,74.28
2023-05-18T02:49:45.770Z,75.03
2023-05-18T02:54:47.657Z,74.22
2023-05-18T02:59:55.486Z,74.48
2023-05-18T03:04:57.541Z,73.17
2023-05-18T03:09:59.580Z,74.07
2023-05-18T03:15:01.364Z,76.20
2023-05-18T03:20:04.954Z,76.58
2023-05-18T03:25:07.846Z,77.12
2023-05-18T03:30:10.193Z,76.79
2023-05-18T03:35:11.899Z,78.88
2023-05-18T03:40:15.631Z,79.62
2023-05-18T03:45:19.250Z,80.10
2023-05-18T03:50:21.405Z,79.16
2023-05-18T03:55:24.376Z,77.45
2023-05-18T04:00:26.367Z,79.59
2023-05-18T04:05:28.551Z,80.77
2023-05-18T04:10:31.240Z,78.01
2023-05-18T04:15:33.731Z,77.62
2023-05-18T04:20:35.673Z,75.86
2023-05-18T04:25:39.354Z,76.25
2023-05-18T04:30:41.775Z,76.17
2023-05-18T04:35:44.562Z,76.44
2023-05-18T04:40:47.601Z,75.37
2023-05-18T04:45:51.311Z,75.63
2023-05-18T04:50:56.192Z,72.93
2023-05-18T04:55:58.029Z,71.41
2023-05-18T05:00:59.823Z,71.02
2023-05-18T05:06:02.553Z,70.11
2023-05-18T05:11:04.742Z,69.52
2023-05-18T05:16:06.708Z,67.67
2023-05-18T05:21:09.605Z,68.72
2023-05-18T05:26:11.530Z,69.09
2023-05-18T05:31:13.926Z,67.12
2023-05-18T05:36:15.817Z,64.58
2023-05-18T05:41:17.876Z,64.60
2023-05-18T05:46:19.995Z,61.44
2023-05-18T05:51:24.432Z,60.22
2023-05-18T05:56:26.347Z,59.36
2023-05-18T06:01:31.853Z,57.73
2023-05-18T06:06:33.650Z,56.95
2023-05-18T06:11:35.747Z,54.78
2023-05-18T06:16:38.415Z,52.15
2023-05-18T06:21:40.389Z,52.26
2023-05-18T06:26:43.436Z,53.08
2023-05-18T06:32:13.537Z,50.89
2023-05-18T06:37:18.109Z,48.47
2023-05-18T06:42:20.066Z,47.03
2023-05-18T06:47:37.245Z,47.79
2023-05-18T06:52:39.233Z,49.58
2023-05-18T06:57:41.499Z,47.10
2023-05-18T07:02:45.765Z,47.01
2023-05-18T07:07:47.724Z,45.22
2023-05-18T07:12:49.962Z,45.85
2023-05-18T07:17:52.129Z,44.22
2023-05-18T07:22:55.819Z,45.58
2023-05-18T07:27:57.709Z,46.12
2023-05-18T07:32:59.464Z,44.33
2023-05-18T07:38:01.357Z,44.43
2023-05-18T07:43:03.051Z,44.44
2023-05-18T07:48:04.803Z,44.12
2023-05-18T07:53:06.540Z,45.82
2023-05-18T07:58:08.333Z,44.33
2023-05-18T08:03:10.151Z,43.89
2023-05-18T08:08:15.326Z,43.01
2023-05-18T08:13:17.149Z,41.86
2023-05-18T08:18:18.806Z,41.53
2023-05-18T08:23:20.478Z,43.07
2023-05-18T08:28:22.968Z,42.90
2023-05-18T08:33:24.809Z,42.08
2023-05-18T08:38:26.704Z,43.26
2023-05-18T08:43:33.555Z,43.30
2023-05-18T08:48:36.874Z,44.88
2023-05-18T08:53:39.746Z,44.98
2023-05-18T08:58:48.010Z,45.25
2023-05-18T09:03:50.658Z,43.54
2023-05-18T09:08:59.316Z,43.14
2023-05-18T09:14:01.938Z,43.68
2023-05-18T09:19:03.930Z,42.00
2023-05-18T09:24:06.229Z,43.16
2023-05-18T09:29:19.234Z,41.74
2023-05-18T09:34:21.678Z,40.52
2023-05-18T09:39:23.413Z,41.34
2023-05-18T09:44:34.651Z,42.21
2023-05-18T09:49:37.653Z,41.12
2023-05-18T09:54:40.163Z,40.95
2023-05-18T09:59:41.993Z,41.40
2023-05-18T10:04:44.707Z,40.81
2023-05-18T10:09:47.023Z,41.29
2023-05-18T10:14:49.634Z,40.32
2023-05-18T10:19:55.879Z,40.73
2023-05-18T10:24:59.201Z,39.33
2023-05-18T10:30:04.761Z,39.22
2023-05-18T10:35:08.703Z,38.99
2023-05-18T10:40:12.354Z,38.69
2023-05-18T10:45:15.627Z,37.82
2023-05-18T10:50:17.474Z,37.42
2023-05-18T10:55:20.066Z,37.60
2023-05-18T11:00:22.065Z,37.31
2023-05-18T11:05:25.740Z,37.17
2023-05-18T11:10:34.781Z,37.51
2023-05-18T11:15:55.052Z,36.55
2023-05-18T11:20:56.872Z,36.66
2023-05-18T11:26:05.033Z,37.67
2023-05-18T11:31:06.741Z,37.21
2023-05-18T11:36:14.526Z,37.41
2023-05-18T11:41:44.180Z,38.32
2023-05-18T11:46:59.927Z,38.53
2023-05-18T11:52:14.320Z,36.59
2023-05-18T11:57:18.587Z,37.30
2023-05-18T12:02:28.509Z,37.06
2023-05-18T12:07:34.359Z,37.53
2023-05-18T12:12:36.288Z,37.29
2023-05-18T12:17:45.339Z,38.14
2023-05-18T12:22:53.286Z,36.82
2023-05-18T12:27:57.017Z,38.13
2023-05-18T12:33:00.188Z,37.47
2023-05-18T12:38:02.607Z,37.98
2023-05-18T12:43:04.757Z,38.29
2023-05-18T12:48:12.095Z,39.21
2023-05-18T12:53:14.067Z,38.33
2023-05-18T12:58:17.003Z,37.57
2023-05-18T13:03:24.311Z,38.27
2023-05-18T13:08:26.223Z,37.65
2023-05-18T13:13:27.974Z,37.22
2023-05-18T13:18:29.717Z,38.02
2023-05-18T13:23:31.443Z,37.01
2023-05-18T13:28:33.214Z,36.96
2023-05-18T13:33:34.924Z,36.58
2023-05-18T13:38:37.516Z,35.69
2023-05-18T13:43:39.418Z,36.76
2023-05-18T13:48:41.260Z,36.46
2023-05-18T13:53:43.056Z,37.55
2023-05-18T13:58:44.844Z,36.82
2023-05-18T14:03:46.665Z,36.29
2023-05-18T14:08:48.386Z,36.91
2023-05-18T14:13:50.478Z,36.31
2023-05-18T14:18:52.322Z,37.16
2023-05-18T14:23:54.136Z,37.21
2023-05-18T14:28:56.228Z,37.63
2023-05-18T14:33:58.068Z,37.62
2023-05-18T14:38:59.889Z,37.37
2023-05-18T14:44:03.923Z,36.55
2023-05-18T14:49:06.067Z,37.98
2023-05-18T14:54:07.857Z,38.16
2023-05-18T14:59:09.594Z,37.11
2023-05-18T15:04:11.397Z,38.38
2023-05-18T15:09:14.978Z,37.99
2023-05-18T15:14:16.875Z,38.12
2023-05-18T15:19:19.607Z,35.81
2023-05-18T15:24:21.600Z,35.11
2023-05-18T15:29:23.524Z,34.21
2023-05-18T15:34:25.305Z,34.79
2023-05-18T15:39:27.039Z,36.24
2023-05-18T15:44:29.696Z,36.31
2023-05-18T15:49:31.580Z,37.43
2023-05-18T15:54:33.333Z,38.49
2023-05-18T15:59:35.016Z,39.31
2023-05-18T16:04:36.732Z,38.47
2023-05-18T16:09:38.414Z,38.16
2023-05-18T16:14:40.105Z,38.35
2023-05-18T16:19:41.864Z,38.26
2023-05-18T16:24:44.240Z,37.83
2023-05-18T16:29:45.994Z,37.89
2023-05-18T16:34:47.784Z,38.04
2023-05-18T16:39:49.557Z,38.54
2023-05-18T16:44:51.593Z,39.02
2023-05-18T16:49:53.533Z,38.83
2023-05-18T16:54:55.296Z,39.08
2023-05-18T16:59:57.123Z,38.86
2023-05-18T17:04:59.010Z,38.89
2023-05-18T17:10:00.749Z,39.39
2023-05-18T17:15:02.983Z,38.22
2023-05-18T17:20:06.732Z,38.28
2023-05-18T17:25:08.918Z,37.22
2023-05-18T17:30:11.141Z,37.87
2023-05-18T17:35:14.543Z,37.87
2023-05-18T17:40:16.520Z,38.55
2023-05-18T17:45:18.697Z,38.56
2023-05-18T17:50:20.427Z,38.29
2023-05-18T17:55:22.095Z,38.65
2023-05-18T18:00:23.947Z,39.36
2023-05-18T18:05:25.730Z,38.80
2023-05-18T18:10:27.501Z,39.20
2023-05-18T18:15:29.222Z,39.70
2023-05-18T18:20:36.534Z,40.13
2023-05-18T18:25:38.471Z,40.12
2023-05-18T18:30:41.250Z,39.49
2023-05-18T18:35:43.539Z,40.39
2023-05-18T18:40:45.421Z,40.67
2023-05-18T18:45:47.324Z,41.35
2023-05-18T18:50:49.495Z,41.05
2023-05-18T18:55:51.291Z,41.62
2023-05-18T19:00:52.997Z,41.94
2023-05-18T19:05:54.750Z,41.99
2023-05-18T19:10:56.534Z,41.82
2023-05-18T19:15:58.468Z,42.68
2023-05-18T19:21:01.597Z,42.82
2023-05-18T19:26:03.548Z,43.05
2023-05-18T19:31:05.417Z,42.97
2023-05-18T19:36:07.223Z,43.36
2023-05-18T19:41:09.060Z,43.82
2023-05-18T19:46:11.266Z,43.99
2023-05-18T19:51:13.047Z,44.88
2023-05-18T19:56:14.801Z,45.08
2023-05-18T20:01:18.383Z,45.34
2023-05-18T20:06:20.270Z,45.85
2023-05-18T20:11:22.377Z,46.12
2023-05-18T20:16:26.385Z,46.29
2023-05-18T20:21:28.208Z,46.08
2023-05-18T20:26:31.973Z,46.75
2023-05-18T20:31:33.993Z,47.44
2023-05-18T20:36:35.948Z,47.53
2023-05-18T20:41:40.207Z,47.55
2023-05-18T20:46:42.551Z,47.90
2023-05-18T20:51:44.513Z,48.88
2023-05-18T20:56:46.393Z,49.16
2023-05-18T21:01:48.262Z,49.26
2023-05-18T21:06:50.191Z,49.72
2023-05-18T21:11:52.130Z,49.74
2023-05-18T21:16:53.873Z,51.30
2023-05-18T21:21:55.843Z,51.98
2023-05-18T21:26:57.541Z,53.14
2023-05-18T21:31:59.555Z,51.66
2023-05-18T21:37:01.518Z,52.30
2023-05-18T21:42:35.449Z,52.58
2023-05-18T21:47:37.218Z,52.30
2023-05-18T21:52:38.930Z,53.86
2023-05-18T21:57:40.856Z,53.73
2023-05-18T22:02:42.592Z,53.32
2023-05-18T22:07:44.362Z,53.45
2023-05-18T22:12:46.057Z,53.97
2023-05-18T22:17:47.956Z,54.87
2023-05-18T22:22:49.809Z,56.39
2023-05-18T22:27:52.890Z,57.34
2023-05-18T22:32:54.842Z,57.88
2023-05-18T22:37:56.568Z,59.01
2023-05-18T22:42:58.453Z,58.47
2023-05-18T22:48:01.508Z,58.73
2023-05-18T22:53:04.834Z,58.05
2023-05-18T22:58:06.564Z,58.49
2023-05-18T23:03:08.534Z,58.49
2023-05-18T23:08:10.277Z,57.43
2023-05-18T23:13:16.215Z,58.96
2023-05-18T23:18:18.182Z,59.98
2023-05-18T23:23:31.572Z,59.20
2023-05-18T23:28:33.240Z,59.01
2023-05-18T23:33:37.700Z,59.32
2023-05-18T23:38:44.069Z,60.63
2023-05-18T23:43:46.019Z,63.17
2023-05-18T23:48:48.193Z,63.25
2023-05-18T23:53:51.415Z,63.24
2023-05-18T23:58:53.256Z,61.88
